Montgomery, Minnesota
Current Conditions -  °F | °C
As of 3:14 AM on Monday 20 Oct 2014 (Local Time) from KFBL Reporting Station
Clear Clear  
Wind Chill: 46°   Ceiling: Unl
Heat Index: 48°   Visibility: 10mi
Dew Point: 43°   Wind: 6mph
Humidity: 82%   Direction: 300°WNW
Pressure: 29.92"   Gusts: NA
Location:  44.44°N, 93.58°W
Report Text: KFBL 200814Z AUTO 30005KT 10SM CLR 09/06 A2992 RMK AO2
Loading
Personal Weather Stations






























Interactive Weather Map
Tropical Storm Tracking
New forecast layout! Learn more

10-Day Weather Forecast

Advertisements
Track Severe Weather on mobile